createdAt,value
2017-05-01T00:01:38.283Z,23.20
2017-05-01T00:04:06.581Z,23.20
2017-05-01T00:06:35.268Z,23.20
2017-05-01T00:09:03.561Z,23.10
2017-05-01T00:11:32.597Z,23.20
2017-05-01T00:14:01.217Z,23.20
2017-05-01T00:16:29.519Z,23.20
2017-05-01T00:18:58.566Z,23.20
2017-05-01T00:21:27.168Z,23.20
2017-05-01T00:23:55.462Z,23.10
2017-05-01T00:26:23.755Z,23.10
2017-05-01T00:28:53.092Z,23.10
2017-05-01T00:31:21.393Z,23.10
2017-05-01T00:33:49.683Z,23.20
2017-05-01T00:36:18.367Z,23.20
2017-05-01T00:38:46.664Z,23.10
2017-05-01T00:41:14.954Z,23.10
2017-05-01T00:43:44.304Z,23.10
2017-05-01T00:46:12.613Z,23.10
2017-05-01T00:48:40.925Z,23.10
2017-05-01T00:51:10.280Z,23.10
2017-05-01T00:53:38.577Z,23.20
2017-05-01T00:56:06.875Z,23.30
2017-05-01T00:58:36.180Z,23.40
2017-05-01T01:01:05.205Z,23.50
2017-05-01T01:03:33.602Z,23.60
2017-05-01T01:06:02.299Z,23.70
2017-05-01T01:08:30.589Z,23.80
2017-05-01T01:11:04.939Z,23.70
2017-05-01T01:13:33.248Z,23.70
2017-05-01T01:16:01.552Z,23.70
2017-05-01T01:18:30.225Z,23.60
2017-05-01T01:20:58.513Z,23.60
2017-05-01T01:23:27.502Z,23.50
2017-05-01T01:25:56.152Z,23.40
2017-05-01T01:28:24.443Z,23.40
2017-05-01T01:30:52.735Z,23.50
2017-05-01T01:33:21.333Z,23.50
2017-05-01T01:35:49.630Z,23.50
2017-05-01T01:38:17.921Z,23.50
2017-05-01T01:40:47.282Z,23.40
2017-05-01T01:43:15.569Z,23.40
2017-05-01T01:45:43.864Z,23.30
2017-05-01T01:48:12.514Z,23.30
2017-05-01T01:50:40.802Z,23.30
2017-05-01T01:53:09.091Z,23.20
2017-05-01T01:55:37.762Z,23.10
2017-05-01T01:58:06.050Z,23.10
2017-05-01T02:00:34.342Z,23.10
2017-05-01T02:03:03.010Z,23.00
2017-05-01T02:05:31.298Z,22.90
2017-05-01T02:07:59.592Z,22.90
2017-05-01T02:10:28.962Z,22.80
2017-05-01T02:12:57.257Z,22.80
2017-05-01T02:15:25.584Z,22.80
2017-05-01T02:17:54.192Z,22.70
2017-05-01T02:20:22.482Z,22.70
2017-05-01T02:22:50.778Z,22.70
2017-05-01T02:25:19.392Z,22.70
2017-05-01T02:27:47.690Z,22.60
2017-05-01T02:30:15.996Z,22.60
2017-05-01T02:32:44.783Z,22.50
2017-05-01T02:35:13.169Z,22.50
2017-05-01T02:37:41.540Z,22.40
2017-05-01T02:40:10.233Z,22.40
2017-05-01T02:42:38.618Z,22.40
2017-05-01T02:45:06.905Z,22.40
2017-05-01T02:47:35.507Z,22.40
2017-05-01T02:50:04.583Z,22.30
2017-05-01T02:52:32.944Z,22.30
2017-05-01T02:55:01.632Z,22.30
2017-05-01T02:57:30.023Z,22.30
2017-05-01T02:59:58.318Z,22.20
2017-05-01T03:02:26.974Z,22.20
2017-05-01T03:04:55.278Z,22.20
2017-05-01T03:07:23.559Z,22.20
2017-05-01T03:09:52.215Z,22.20
2017-05-01T03:12:20.500Z,22.20
2017-05-01T03:14:48.784Z,22.20
2017-05-01T03:17:17.457Z,22.10
2017-05-01T03:19:45.755Z,22.10
2017-05-01T03:22:14.040Z,22.10
2017-05-01T03:24:42.707Z,22.10
2017-05-01T03:27:11.001Z,22.10
2017-05-01T03:29:39.291Z,22.10
2017-05-01T03:32:08.660Z,22.00
2017-05-01T03:34:36.949Z,22.00
2017-05-01T03:37:05.232Z,22.00
2017-05-01T03:39:33.815Z,22.00
2017-05-01T03:42:02.101Z,22.00
2017-05-01T03:44:30.457Z,21.90
2017-05-01T03:46:59.138Z,21.90
2017-05-01T03:49:27.516Z,21.90
2017-05-01T03:51:55.800Z,21.90
2017-05-01T03:54:24.485Z,21.80
2017-05-01T03:56:52.865Z,21.80
2017-05-01T03:59:21.157Z,21.80
2017-05-01T04:01:49.830Z,21.80
2017-05-01T04:04:18.121Z,21.80
2017-05-01T04:06:46.464Z,21.80
2017-05-01T04:09:15.073Z,21.80
2017-05-01T04:11:43.457Z,21.80
2017-05-01T04:14:11.750Z,21.80
2017-05-01T04:16:41.120Z,21.80
2017-05-01T04:19:09.520Z,21.80
2017-05-01T04:21:37.878Z,21.80
2017-05-01T04:24:06.572Z,21.70
2017-05-01T04:26:34.865Z,21.80
2017-05-01T04:29:03.161Z,21.80
2017-05-01T04:31:32.531Z,21.80
2017-05-01T04:34:00.820Z,21.70
2017-05-01T04:36:29.107Z,21.70
2017-05-01T04:38:57.767Z,21.70
2017-05-01T04:41:26.159Z,21.70
2017-05-01T04:43:54.451Z,21.70
2017-05-01T04:46:23.110Z,21.80
2017-05-01T04:48:51.396Z,21.70
2017-05-01T04:51:19.785Z,21.70
2017-05-01T04:53:48.466Z,21.70
2017-05-01T04:56:16.825Z,21.70
2017-05-01T04:58:45.123Z,21.70
2017-05-01T05:01:13.806Z,21.70
2017-05-01T05:03:42.296Z,21.70
2017-05-01T05:06:10.654Z,21.70
2017-05-01T05:08:39.345Z,21.70
2017-05-01T05:11:07.642Z,21.70
2017-05-01T05:13:35.998Z,21.70
2017-05-01T05:16:04.587Z,21.70
2017-05-01T05:18:32.966Z,21.80
2017-05-01T05:21:01.253Z,21.70
2017-05-01T05:23:29.954Z,21.70
2017-05-01T05:25:58.241Z,21.70
2017-05-01T05:28:27.297Z,21.70
2017-05-01T05:30:55.966Z,21.70
2017-05-01T05:33:24.270Z,21.70
2017-05-01T05:35:52.568Z,21.80
2017-05-01T05:38:21.231Z,21.80
2017-05-01T05:40:49.527Z,21.80
2017-05-01T05:43:17.887Z,21.80
2017-05-01T05:45:46.562Z,21.80
2017-05-01T05:48:14.856Z,21.80
2017-05-01T05:50:43.157Z,21.80
2017-05-01T05:53:12.533Z,21.80
2017-05-01T05:55:40.821Z,21.80
2017-05-01T05:58:09.186Z,21.80
2017-05-01T06:00:37.769Z,21.80
2017-05-01T06:03:06.054Z,21.80
2017-05-01T06:05:34.419Z,21.80
2017-05-01T06:08:03.016Z,21.80
2017-05-01T06:10:31.394Z,21.90
2017-05-01T06:12:59.689Z,21.90
2017-05-01T06:15:28.360Z,21.90
2017-05-01T06:17:56.740Z,21.80
2017-05-01T06:20:25.044Z,21.80
2017-05-01T06:22:54.416Z,21.80
2017-05-01T06:25:22.711Z,21.80
2017-05-01T06:27:51.014Z,21.70
2017-05-01T06:30:20.355Z,21.70
2017-05-01T06:32:48.646Z,21.70
2017-05-01T06:35:16.934Z,21.70
2017-05-01T06:37:45.536Z,21.60
2017-05-01T06:40:13.825Z,21.60
2017-05-01T06:42:42.874Z,21.60
2017-05-01T06:45:11.565Z,21.50
2017-05-01T06:47:39.856Z,21.50
2017-05-01T06:50:08.145Z,21.50
2017-05-01T06:52:36.807Z,21.50
2017-05-01T06:55:05.096Z,21.40
2017-05-01T06:57:33.377Z,21.40
2017-05-01T07:00:02.056Z,21.50
2017-05-01T07:02:30.352Z,21.40
2017-05-01T07:04:58.650Z,21.50
2017-05-01T07:07:28.008Z,21.50
2017-05-01T07:09:56.378Z,21.50
2017-05-01T07:12:24.756Z,21.50
2017-05-01T07:14:53.352Z,21.50
2017-05-01T07:17:21.642Z,21.50
2017-05-01T07:19:49.959Z,21.50
2017-05-01T07:22:18.588Z,21.60
2017-05-01T07:24:47.029Z,21.60
2017-05-01T07:27:15.361Z,21.60
2017-05-01T07:29:44.450Z,21.60
2017-05-01T07:32:12.841Z,21.60
2017-05-01T07:34:41.124Z,21.70
2017-05-01T07:37:09.784Z,21.70
2017-05-01T07:39:38.179Z,21.70
2017-05-01T07:42:06.470Z,21.70
2017-05-01T07:44:35.069Z,21.70
2017-05-01T07:47:04.111Z,21.70
2017-05-01T07:49:32.604Z,21.70
2017-05-01T07:52:01.192Z,21.70
2017-05-01T07:54:29.504Z,21.70
2017-05-01T07:56:58.532Z,21.70
2017-05-01T07:59:27.158Z,21.70
2017-05-01T08:01:55.523Z,21.70
2017-05-01T08:04:23.814Z,21.80
2017-05-01T08:06:52.493Z,21.80
2017-05-01T08:09:20.793Z,21.80
2017-05-01T08:11:49.076Z,21.80
2017-05-01T08:14:18.464Z,21.80
2017-05-01T08:16:46.758Z,21.90
2017-05-01T08:19:15.788Z,21.90
2017-05-01T08:21:44.400Z,21.90
2017-05-01T08:24:12.695Z,21.90
2017-05-01T08:26:41.057Z,21.90
2017-05-01T08:29:09.745Z,21.90
2017-05-01T08:31:38.033Z,21.90
2017-05-01T08:34:06.328Z,22.00
2017-05-01T08:36:34.987Z,22.00
2017-05-01T08:39:03.278Z,22.00
2017-05-01T08:41:31.647Z,22.00
2017-05-01T08:44:00.212Z,22.00
2017-05-01T08:46:28.612Z,22.00
2017-05-01T08:48:56.994Z,22.00
2017-05-01T08:51:25.681Z,22.10
2017-05-01T08:53:54.152Z,22.10
2017-05-01T08:56:22.548Z,22.10
2017-05-01T08:58:51.218Z,22.10
2017-05-01T09:01:19.506Z,22.10
2017-05-01T09:03:47.876Z,22.10
2017-05-01T09:06:16.496Z,22.10
2017-05-01T09:08:45.538Z,22.20
2017-05-01T09:11:14.200Z,22.30
2017-05-01T09:13:42.834Z,22.50
2017-05-01T09:16:11.128Z,22.60
2017-05-01T09:18:39.417Z,22.70
2017-05-01T09:21:08.776Z,22.70
2017-05-01T09:23:37.062Z,22.70
2017-05-01T09:26:05.442Z,22.80
2017-05-01T09:28:34.147Z,22.90
2017-05-01T09:31:02.434Z,23.00
2017-05-01T09:33:31.472Z,23.10
2017-05-01T09:36:00.074Z,23.10
2017-05-01T09:38:28.474Z,23.00
2017-05-01T09:40:56.785Z,23.00
2017-05-01T09:43:26.148Z,23.00
2017-05-01T09:45:54.445Z,22.90
2017-05-01T09:48:22.807Z,22.90
2017-05-01T09:50:51.499Z,22.90
2017-05-01T09:53:19.866Z,23.00
2017-05-01T09:55:48.174Z,23.00
2017-05-01T09:58:16.845Z,23.00
2017-05-01T10:00:45.155Z,23.10
2017-05-01T10:03:14.203Z,23.20
2017-05-01T10:05:42.895Z,23.30
2017-05-01T10:08:11.288Z,23.30
2017-05-01T10:10:39.675Z,23.30
2017-05-01T10:13:08.360Z,23.40
2017-05-01T10:15:36.651Z,23.50
2017-05-01T10:18:05.690Z,23.50
2017-05-01T10:20:34.292Z,23.50
2017-05-01T10:23:02.592Z,23.40
2017-05-01T10:25:30.896Z,23.40
2017-05-01T10:28:00.252Z,23.40
2017-05-01T10:30:28.565Z,23.50
2017-05-01T10:32:57.612Z,23.60
2017-05-01T10:35:26.226Z,23.60
2017-05-01T10:37:54.518Z,23.80
2017-05-01T10:40:23.563Z,23.90
2017-05-01T10:42:52.483Z,24.00
2017-05-01T10:45:20.794Z,23.90
2017-05-01T10:47:49.852Z,23.70
2017-05-01T10:50:18.430Z,23.70
2017-05-01T10:52:46.725Z,23.70
2017-05-01T10:55:15.037Z,23.70
2017-05-01T10:57:43.679Z,23.70
2017-05-01T11:00:11.976Z,24.00
2017-05-01T11:02:40.381Z,24.20
2017-05-01T11:05:09.023Z,24.30
2017-05-01T11:07:37.339Z,24.40
2017-05-01T11:10:05.644Z,24.30
2017-05-01T11:12:34.295Z,24.40
2017-05-01T11:15:02.138Z,24.50
2017-05-01T11:17:29.969Z,24.60
2017-05-01T11:19:58.188Z,24.70
2017-05-01T11:22:26.029Z,24.70
2017-05-01T11:24:53.886Z,24.80
2017-05-01T11:27:22.597Z,25.30
2017-05-01T11:29:50.894Z,25.20
2017-05-01T11:32:19.193Z,24.70
2017-05-01T11:34:47.886Z,24.60
2017-05-01T11:37:16.188Z,24.50
2017-05-01T11:39:44.503Z,24.40
2017-05-01T11:42:13.190Z,24.30
2017-05-01T11:44:41.560Z,24.30
2017-05-01T11:47:09.845Z,24.30
2017-05-01T11:49:38.446Z,24.20
2017-05-01T11:52:07.486Z,24.20
2017-05-01T11:54:35.779Z,24.20
2017-05-01T11:57:04.482Z,24.20
2017-05-01T11:59:32.789Z,24.10
2017-05-01T12:02:01.821Z,24.10
2017-05-01T12:04:30.424Z,24.20
2017-05-01T12:06:58.722Z,24.20
2017-05-01T12:09:27.015Z,24.20
2017-05-01T12:11:56.381Z,24.10
2017-05-01T12:14:24.684Z,24.10
2017-05-01T12:16:52.973Z,24.10
2017-05-01T12:19:22.350Z,24.10
2017-05-01T12:21:50.639Z,24.10
2017-05-01T12:24:18.916Z,24.10
2017-05-01T12:26:47.527Z,24.10
2017-05-01T12:29:16.549Z,24.00
2017-05-01T12:31:44.863Z,24.10
2017-05-01T12:34:13.587Z,24.10
2017-05-01T12:36:42.618Z,24.10
2017-05-01T12:39:10.920Z,24.10
2017-05-01T12:41:39.604Z,24.10
2017-05-01T12:44:07.897Z,24.10
2017-05-01T12:46:36.215Z,24.20
2017-05-01T12:49:04.854Z,24.10
2017-05-01T12:51:33.227Z,24.10
2017-05-01T12:54:01.613Z,24.10
2017-05-01T12:56:30.298Z,24.20
2017-05-01T12:58:58.597Z,24.20
2017-05-01T13:01:27.665Z,24.20
2017-05-01T13:03:56.276Z,24.20
2017-05-01T13:06:25.346Z,24.20
2017-05-01T13:08:53.827Z,24.30
2017-05-01T13:11:22.520Z,24.20
2017-05-01T13:13:50.907Z,24.20
2017-05-01T13:16:19.203Z,24.30
2017-05-01T13:18:48.565Z,24.20
2017-05-01T13:21:16.859Z,24.20
2017-05-01T13:23:45.151Z,24.20
2017-05-01T13:26:13.808Z,24.20
2017-05-01T13:28:42.105Z,24.20
2017-05-01T13:31:10.400Z,24.20
2017-05-01T13:33:39.779Z,24.20
2017-05-01T13:36:08.079Z,24.20
2017-05-01T13:38:37.114Z,24.20
2017-05-01T13:41:05.744Z,24.30
2017-05-01T13:43:34.038Z,24.20
2017-05-01T13:46:03.073Z,24.20
2017-05-01T13:48:31.671Z,24.30
2017-05-01T13:50:59.965Z,24.30
2017-05-01T13:53:28.266Z,24.20
2017-05-01T13:55:56.932Z,24.20
2017-05-01T13:58:25.227Z,24.20
2017-05-01T14:00:53.538Z,24.20
2017-05-01T14:03:22.145Z,24.30
2017-05-01T14:05:50.471Z,24.30
2017-05-01T14:08:18.772Z,24.40
2017-05-01T14:10:47.426Z,24.50
2017-05-01T14:13:15.734Z,24.60
2017-05-01T14:15:44.038Z,24.60
2017-05-01T14:18:12.670Z,24.60
2017-05-01T14:20:40.980Z,24.70
2017-05-01T14:23:09.282Z,24.60
2017-05-01T14:25:37.883Z,24.70
2017-05-01T14:28:06.174Z,24.70
2017-05-01T14:30:34.478Z,24.70
2017-05-01T14:33:03.854Z,24.70
2017-05-01T14:35:32.143Z,24.70
2017-05-01T14:38:00.433Z,24.70
2017-05-01T14:40:29.805Z,24.70
2017-05-01T14:42:58.101Z,24.70
2017-05-01T14:45:26.399Z,24.70
2017-05-01T14:47:55.758Z,24.70
2017-05-01T14:50:24.050Z,24.70
2017-05-01T14:52:52.354Z,24.70
2017-05-01T14:55:21.716Z,24.70
2017-05-01T14:57:50.018Z,24.70
2017-05-01T15:00:18.319Z,24.80
2017-05-01T15:02:47.698Z,24.70
2017-05-01T15:05:15.992Z,24.80
2017-05-01T15:07:45.028Z,24.80
2017-05-01T15:10:13.645Z,24.70
2017-05-01T15:12:41.943Z,24.70
2017-05-01T15:15:10.988Z,24.70
2017-05-01T15:17:39.695Z,24.80
2017-05-01T15:20:07.978Z,24.80
2017-05-01T15:22:36.269Z,24.70
2017-05-01T15:25:04.967Z,24.70
2017-05-01T15:27:34.024Z,24.70
2017-05-01T15:30:02.328Z,24.70
2017-05-01T15:32:31.002Z,24.80
2017-05-01T15:34:59.301Z,24.80
2017-05-01T15:37:28.335Z,24.80
2017-05-01T15:39:56.963Z,24.80
2017-05-01T15:42:25.258Z,24.80
2017-05-01T15:44:54.310Z,24.80
2017-05-01T15:47:23.021Z,24.80
2017-05-01T15:49:51.327Z,24.80
2017-05-01T15:52:20.371Z,24.80
2017-05-01T15:54:48.976Z,24.80
2017-05-01T15:57:17.301Z,24.80
2017-05-01T15:59:45.621Z,24.80
2017-05-01T16:02:14.243Z,24.80
2017-05-01T16:04:43.303Z,24.80
2017-05-01T16:07:11.601Z,24.70
2017-05-01T16:09:40.214Z,24.80
2017-05-01T16:12:09.274Z,24.70
2017-05-01T16:14:37.607Z,24.70
2017-05-01T16:17:06.247Z,24.80
2017-05-01T16:19:34.557Z,24.80
2017-05-01T16:22:02.901Z,24.80
2017-05-01T16:24:31.523Z,24.80
2017-05-01T16:26:59.820Z,24.80
2017-05-01T16:29:28.126Z,24.80
2017-05-01T16:31:56.823Z,24.80
2017-05-01T16:34:25.138Z,24.80
2017-05-01T16:36:53.459Z,24.80
2017-05-01T16:39:22.160Z,24.80
2017-05-01T16:41:50.457Z,24.80
2017-05-01T16:44:18.796Z,24.80
2017-05-01T16:46:47.434Z,24.80
2017-05-01T16:49:16.481Z,24.80
2017-05-01T16:51:44.801Z,24.80
2017-05-01T16:54:14.187Z,24.80
2017-05-01T16:56:42.518Z,24.80
2017-05-01T16:59:10.821Z,24.80
2017-05-01T17:01:39.623Z,24.70
2017-05-01T17:04:07.956Z,24.80
2017-05-01T17:06:36.261Z,24.80
2017-05-01T17:09:04.981Z,24.80
2017-05-01T17:11:33.289Z,24.80
2017-05-01T17:14:01.612Z,24.80
2017-05-01T17:16:30.332Z,24.80
2017-05-01T17:18:59.391Z,24.80
2017-05-01T17:21:27.700Z,24.80
2017-05-01T17:23:56.376Z,24.70
2017-05-01T17:26:24.689Z,24.60
2017-05-01T17:28:53.014Z,24.40
2017-05-01T17:31:21.712Z,24.50
2017-05-01T17:33:50.041Z,24.50
2017-05-01T17:36:18.345Z,24.50
2017-05-01T17:38:46.987Z,24.40
2017-05-01T17:41:16.044Z,24.40
2017-05-01T17:43:44.358Z,24.40
2017-05-01T17:46:13.784Z,24.30
2017-05-01T17:48:42.088Z,24.40
2017-05-01T17:51:10.414Z,24.30
2017-05-01T17:53:39.815Z,24.30
2017-05-01T17:56:08.908Z,24.30
2017-05-01T17:58:37.232Z,24.30
2017-05-01T18:01:05.865Z,24.20
2017-05-01T18:03:34.195Z,24.20
2017-05-01T18:06:02.494Z,24.20
2017-05-01T18:08:31.121Z,24.20
2017-05-01T18:11:00.194Z,24.10
2017-05-01T18:13:28.555Z,24.10
2017-05-01T18:15:57.170Z,24.10
2017-05-01T18:18:25.476Z,24.10
2017-05-01T18:20:53.811Z,24.10
2017-05-01T18:23:22.406Z,23.90
2017-05-01T18:25:50.718Z,23.80
2017-05-01T18:28:19.023Z,23.70
2017-05-01T18:30:47.629Z,23.70
2017-05-01T18:33:15.931Z,23.70
2017-05-01T18:35:44.979Z,23.80
2017-05-01T18:38:13.653Z,23.90
2017-05-01T18:40:41.969Z,24.00
2017-05-01T18:43:10.437Z,24.00
2017-05-01T18:45:39.413Z,24.10
2017-05-01T18:48:08.027Z,24.30
2017-05-01T18:50:36.354Z,24.30
2017-05-01T18:53:04.989Z,24.40
2017-05-01T18:55:33.301Z,24.60
2017-05-01T18:58:01.801Z,24.60
2017-05-01T19:00:30.754Z,24.20
2017-05-01T19:02:59.220Z,24.60
2017-05-01T19:05:27.573Z,24.70
2017-05-01T19:07:56.224Z,24.70
2017-05-01T19:10:25.313Z,24.70
2017-05-01T19:12:53.640Z,24.70
2017-05-01T19:15:22.495Z,24.70
2017-05-01T19:17:51.559Z,24.70
2017-05-01T19:20:19.911Z,24.70
2017-05-01T19:22:48.660Z,24.60
2017-05-01T19:25:16.255Z,24.60
2017-05-01T19:27:44.570Z,24.40
2017-05-01T19:30:13.249Z,24.30
2017-05-01T19:32:41.570Z,24.40
2017-05-01T19:35:09.901Z,24.40
2017-05-01T19:37:38.611Z,24.40
2017-05-01T19:40:07.656Z,24.40
2017-05-01T19:42:35.956Z,24.30
2017-05-01T19:45:04.645Z,24.10
2017-05-01T19:47:32.939Z,23.90
2017-05-01T19:50:01.256Z,23.90
2017-05-01T19:52:29.882Z,24.00
2017-05-01T19:54:58.957Z,24.00
2017-05-01T19:57:27.275Z,24.10
2017-05-01T19:59:55.947Z,24.10
2017-05-01T20:02:24.270Z,24.00
2017-05-01T20:04:52.628Z,23.90
2017-05-01T20:07:22.018Z,23.80
2017-05-01T20:09:50.312Z,23.70
2017-05-01T20:12:19.356Z,23.70
2017-05-01T20:14:48.140Z,23.70
2017-05-01T20:17:16.457Z,23.80
2017-05-01T20:19:44.767Z,23.80
2017-05-01T20:22:13.410Z,23.80
2017-05-01T20:24:41.707Z,23.80
2017-05-01T20:27:10.016Z,23.80
2017-05-01T20:29:38.607Z,23.60
2017-05-01T20:32:06.941Z,23.60
2017-05-01T20:34:35.227Z,23.70
2017-05-01T20:37:03.828Z,23.60
2017-05-01T20:39:32.161Z,23.90
2017-05-01T20:42:00.470Z,24.00
2017-05-01T20:44:29.067Z,24.20
2017-05-01T20:46:57.381Z,24.30
2017-05-01T20:49:25.683Z,24.40
2017-05-01T20:51:54.285Z,24.50
2017-05-01T20:54:22.601Z,24.60
2017-05-01T20:56:50.912Z,24.70
2017-05-01T20:59:19.503Z,24.70
2017-05-01T21:01:47.810Z,24.70
2017-05-01T21:04:16.105Z,24.70
2017-05-01T21:06:44.689Z,24.80
2017-05-01T21:09:12.979Z,24.90
2017-05-01T21:11:41.292Z,25.00
2017-05-01T21:14:09.890Z,24.90
2017-05-01T21:16:38.195Z,24.90
2017-05-01T21:19:07.239Z,24.90
2017-05-01T21:21:35.836Z,24.90
2017-05-01T21:24:04.130Z,25.00
2017-05-01T21:26:32.427Z,25.00
2017-05-01T21:29:01.803Z,25.00
2017-05-01T21:31:30.097Z,25.00
2017-05-01T21:33:58.399Z,25.00
2017-05-01T21:36:26.980Z,24.70
2017-05-01T21:38:55.273Z,24.70
2017-05-01T21:41:23.567Z,24.70
2017-05-01T21:43:52.188Z,24.50
2017-05-01T21:46:20.478Z,24.20
2017-05-01T21:48:48.775Z,24.10
2017-05-01T21:51:17.359Z,24.10
2017-05-01T21:53:45.655Z,24.00
2017-05-01T21:56:13.947Z,24.00
2017-05-01T21:58:42.545Z,24.00
2017-05-01T22:01:10.841Z,24.00
2017-05-01T22:03:39.176Z,24.10
2017-05-01T22:06:07.777Z,24.10
2017-05-01T22:08:36.075Z,24.00
2017-05-01T22:11:04.392Z,23.90
2017-05-01T22:13:32.994Z,23.90
2017-05-01T22:16:01.301Z,23.80
2017-05-01T22:18:28.837Z,23.80
2017-05-01T22:20:57.413Z,24.00
2017-05-01T22:23:25.707Z,24.10
2017-05-01T22:25:53.992Z,24.10
2017-05-01T22:28:22.591Z,24.10
2017-05-01T22:30:50.892Z,24.20
2017-05-01T22:33:19.194Z,24.20
2017-05-01T22:35:47.829Z,24.20
2017-05-01T22:38:16.128Z,24.30
2017-05-01T22:40:44.431Z,24.30
2017-05-01T22:43:13.042Z,24.20
2017-05-01T22:45:41.344Z,24.10
2017-05-01T22:48:09.635Z,24.10
2017-05-01T22:50:38.214Z,24.10
2017-05-01T22:53:06.518Z,24.20
2017-05-01T22:55:34.818Z,24.20
2017-05-01T22:58:03.415Z,24.20
2017-05-01T23:00:31.709Z,24.20
2017-05-01T23:03:00.012Z,24.30
2017-05-01T23:05:28.614Z,24.40
2017-05-01T23:07:56.903Z,24.40
2017-05-01T23:10:25.939Z,24.30
2017-05-01T23:12:54.544Z,24.30
2017-05-01T23:15:22.833Z,24.20
2017-05-01T23:17:51.120Z,24.20
2017-05-01T23:20:19.786Z,24.10
2017-05-01T23:22:48.089Z,24.00
2017-05-01T23:25:16.378Z,24.00
2017-05-01T23:27:45.742Z,23.90
2017-05-01T23:30:14.026Z,23.90
2017-05-01T23:32:42.321Z,23.80
2017-05-01T23:35:11.082Z,23.70
2017-05-01T23:37:39.473Z,23.70
2017-05-01T23:40:07.853Z,23.60
2017-05-01T23:42:36.542Z,23.50
2017-05-01T23:45:04.823Z,23.50
2017-05-01T23:47:33.122Z,23.50
2017-05-01T23:50:02.491Z,23.40
2017-05-01T23:52:30.772Z,23.40
2017-05-01T23:54:59.073Z,23.30
2017-05-01T23:57:27.738Z,23.30
2017-05-01T23:59:56.033Z,23.20
